Time;durP1;ratioP1;P1;durP2;ratioP2;P2;SDS_P1;SDS_P2;PMS_P1;PMS_P2;Temp;Humidity;BMP_temperature;BMP_pressure;BME280_temperature;BME280_humidity;BME280_pressure;Samples;Min_cycle;Max_cycle;Signal;HPM_P1;HPM_P2
2021/09/22 00:00:07;;;;;;;0.70;0.60;;;;;;;9.87;100.00;-18811.91;6277484;22;20502;-71
2021/09/22 00:02:37;;;;;;;1.20;1.10;;;;;;;9.83;100.00;-19026.06;6252019;22;20360;-72
2021/09/22 00:05:05;;;;;;;0.70;0.60;;;;;;;9.74;100.00;-19471.91;6277452;22;20372;-70
2021/09/22 00:07:32;;;;;;;0.70;0.60;;;;;;;9.73;100.00;-19551.72;6250808;22;20477;-71
2021/09/22 00:10:02;;;;;;;0.80;0.80;;;;;;;9.73;100.00;-19599.13;6250895;22;20398;-71
2021/09/22 00:12:29;;;;;;;0.70;0.60;;;;;;;9.68;100.00;-19910.69;6250217;22;20415;-71
2021/09/22 00:14:56;;;;;;;0.70;0.60;;;;;;;9.65;100.00;-19972.56;6277853;22;20430;-71
2021/09/22 00:17:27;;;;;;;0.70;0.60;;;;;;;9.58;100.00;-20210.84;6278059;22;20440;-71
2021/09/22 00:19:54;;;;;;;0.70;0.60;;;;;;;9.53;100.00;-20382.06;6277369;22;20418;-70
2021/09/22 00:22:21;;;;;;;0.70;0.60;;;;;;;9.49;100.00;-20478.50;6277235;22;20372;-71
2021/09/22 00:24:48;;;;;;;0.70;0.60;;;;;;;9.51;100.00;-20459.03;6225730;22;20441;-71
2021/09/22 00:27:16;;;;;;;0.70;0.60;;;;;;;9.44;100.00;-20482.16;6251235;22;20391;-71
2021/09/22 00:29:45;;;;;;;0.70;0.60;;;;;;;9.44;100.00;-20522.28;6250748;22;20722;-71
2021/09/22 00:32:17;;;;;;;0.70;0.60;;;;;;;9.48;100.00;-20563.25;6277681;22;20415;-71
2021/09/22 00:34:49;;;;;;;0.90;0.90;;;;;;;9.48;100.00;-20633.25;6251267;22;20944;-72
2021/09/22 00:37:24;;;;;;;0.70;0.60;;;;;;;9.55;100.00;-20665.16;6278384;22;20395;-72
2021/09/22 00:40:06;;;;;;;0.70;0.67;;;;;;;9.56;100.00;-20825.47;6251840;22;20422;-71
2021/09/22 00:42:36;;;;;;;0.70;0.60;;;;;;;9.48;100.00;-20940.00;6277847;22;20775;-72
2021/09/22 00:45:10;;;;;;;0.70;0.60;;;;;;;9.48;100.00;-20940.13;6251177;22;20502;-72
2021/09/22 00:47:44;;;;;;;0.70;0.60;;;;;;;9.47;100.00;-20939.84;6226795;22;20411;-70
2021/09/22 00:50:28;;;;;;;1.13;1.03;;;;;;;9.47;100.00;-20939.72;6250801;22;20411;-72
2021/09/22 00:53:05;;;;;;;0.70;0.60;;;;;;;9.45;100.00;-20939.31;6250791;22;20537;-71
2021/09/22 00:55:43;;;;;;;0.70;0.70;;;;;;;9.45;100.00;-20939.31;6250106;22;20437;-71
2021/09/22 00:58:31;;;;;;;0.70;0.60;;;;;;;9.44;100.00;-20939.03;6228817;22;20436;-71
2021/09/22 01:01:08;;;;;;;0.70;0.60;;;;;;;9.51;100.00;-20940.81;6249144;22;20877;-70
2021/09/22 01:03:45;;;;;;;0.70;0.60;;;;;;;9.56;100.00;-20942.34;6278036;22;20824;-71
2021/09/22 01:06:17;;;;;;;0.70;0.60;;;;;;;9.60;100.00;-20943.47;6277983;22;20666;-72
2021/09/22 01:09:00;;;;;;;0.70;0.60;;;;;;;9.52;100.00;-20941.25;6249940;22;20442;-72
2021/09/22 01:11:34;;;;;;;0.70;0.60;;;;;;;9.50;100.00;-20940.69;6251162;22;20461;-71
2021/09/22 01:14:12;;;;;;;0.90;0.90;;;;;;;9.44;100.00;-20939.03;6250771;22;20886;-71
2021/09/22 01:16:45;;;;;;;0.70;0.57;;;;;;;9.40;100.00;-20937.91;6224913;22;20468;-72
2021/09/22 01:19:22;;;;;;;0.70;0.60;;;;;;;9.42;100.00;-20938.47;6226554;22;20699;-72
2021/09/22 01:21:57;;;;;;;0.70;0.60;;;;;;;9.38;100.00;-20937.38;6250286;22;20456;-72
2021/09/22 01:24:38;;;;;;;0.70;0.60;;;;;;;9.35;100.00;-20936.69;6250285;22;20419;-72
2021/09/22 01:27:05;;;;;;;0.70;0.60;;;;;;;9.34;100.00;-20936.41;6250028;22;20716;-72
2021/09/22 01:29:34;;;;;;;0.80;0.70;;;;;;;9.29;100.00;-20935.00;6249942;22;20407;-71
2021/09/22 01:32:01;;;;;;;0.70;0.60;;;;;;;9.30;100.00;-20935.16;6250040;22;20778;-71
2021/09/22 01:34:28;;;;;;;0.70;0.70;;;;;;;9.29;100.00;-20934.88;6249599;22;20426;-71
2021/09/22 01:37:04;;;;;;;0.70;0.60;;;;;;;9.26;100.00;-20934.03;6248901;22;20498;-70
2021/09/22 01:39:50;;;;;;;0.70;0.60;;;;;;;9.26;100.00;-20934.03;6253399;22;20406;-70
2021/09/22 01:42:17;;;;;;;0.70;0.60;;;;;;;9.22;100.00;-20933.06;6224643;22;20417;-72
2021/09/22 01:44:44;;;;;;;0.70;0.67;;;;;;;9.20;100.00;-20932.50;6250013;22;20391;-71
2021/09/22 01:47:31;;;;;;;0.70;0.60;;;;;;;9.15;100.00;-20931.13;6250333;22;20777;-72
2021/09/22 01:50:07;;;;;;;0.70;0.60;;;;;;;9.08;100.00;-20929.31;6277486;22;20371;-71
2021/09/22 01:52:39;;;;;;;1.87;1.77;;;;;;;8.99;100.00;-20926.84;6248945;22;20994;-71
2021/09/22 01:55:19;;;;;;;0.70;0.60;;;;;;;9.01;100.00;-20927.38;6248160;22;20907;-72
2021/09/22 01:57:49;;;;;;;0.70;0.60;;;;;;;9.07;100.00;-20929.06;6249600;22;20410;-70
2021/09/22 02:00:39;;;;;;;0.70;0.60;;;;;;;9.22;100.00;-20932.94;6277194;22;20484;-71
2021/09/22 02:03:11;;;;;;;0.70;0.70;;;;;;;9.28;100.00;-20934.72;6225345;22;20407;-72
2021/09/22 02:05:50;;;;;;;0.70;0.60;;;;;;;9.31;100.00;-20935.41;6249996;22;20398;-71
2021/09/22 02:08:24;;;;;;;0.70;0.60;;;;;;;9.37;100.00;-20937.09;6226905;22;20426;-70
2021/09/22 02:10:58;;;;;;;0.70;0.60;;;;;;;9.38;100.00;-20937.50;6226683;22;20489;-71
2021/09/22 02:13:25;;;;;;;0.90;0.90;;;;;;;9.38;100.00;-20937.50;6249433;22;20501;-72
2021/09/22 02:15:52;;;;;;;0.70;0.70;;;;;;;9.31;100.00;-20935.41;6249050;22;20456;-71
2021/09/22 02:18:57;;;;;;;0.70;0.60;;;;;;;9.33;100.00;-20935.97;6183094;23;20715;-71
2021/09/22 02:21:25;;;;;;;0.70;0.60;;;;;;;9.34;100.00;-20936.25;6158107;23;20496;-72
2021/09/22 02:24:00;;;;;;;0.70;0.60;;;;;;;9.39;100.00;-20937.78;6196786;22;20426;-71
2021/09/22 02:26:27;;;;;;;0.70;0.60;;;;;;;9.36;100.00;-20936.81;6248707;22;20925;-71
2021/09/22 02:28:55;;;;;;;0.70;0.60;;;;;;;9.31;100.00;-20935.41;6250489;22;20421;-71
2021/09/22 02:31:22;;;;;;;0.70;0.70;;;;;;;9.15;100.00;-20931.28;6249438;22;20426;-71
2021/09/22 02:34:15;;;;;;;0.93;0.83;;;;;;;9.09;100.00;-20929.47;6272410;22;20410;-71
2021/09/22 02:36:45;;;;;;;0.70;0.60;;;;;;;9.03;100.00;-20927.94;6225878;22;20502;-71
2021/09/22 02:39:15;;;;;;;0.70;0.60;;;;;;;9.08;100.00;-20929.31;6250257;22;20453;-71
2021/09/22 02:41:48;;;;;;;0.70;0.60;;;;;;;9.07;100.00;-20928.91;6249136;22;20429;-72
2021/09/22 02:44:15;;;;;;;0.87;0.80;;;;;;;9.05;100.00;-20928.34;6249881;22;20864;-72
2021/09/22 02:46:46;;;;;;;0.70;0.60;;;;;;;9.03;100.00;-20927.94;6277510;22;20421;-71
2021/09/22 02:49:13;;;;;;;0.70;0.60;;;;;;;8.92;100.00;-20924.91;6224649;22;20497;-71
2021/09/22 02:51:41;;;;;;;0.70;0.60;;;;;;;8.85;100.00;-20922.94;6254315;22;20949;-71
2021/09/22 02:54:08;;;;;;;0.70;0.60;;;;;;;8.90;100.00;-20924.34;6227134;22;20426;-72
2021/09/22 02:56:46;;;;;;;0.70;0.70;;;;;;;8.85;100.00;-20922.94;6248942;22;20940;-72
2021/09/22 02:59:13;;;;;;;0.70;0.60;;;;;;;8.78;100.00;-20921.16;6249826;22;20434;-72
2021/09/22 03:01:46;;;;;;;0.70;0.60;;;;;;;8.80;100.00;-20921.72;6249173;22;20424;-71
2021/09/22 03:04:13;;;;;;;0.70;0.60;;;;;;;8.75;100.00;-20920.19;6250495;22;20445;-72
2021/09/22 03:06:40;;;;;;;0.70;0.60;;;;;;;8.77;100.00;-20920.88;6251457;22;20407;-71
2021/09/22 03:09:07;;;;;;;0.70;0.60;;;;;;;8.75;100.00;-20920.31;6251071;22;20907;-71
2021/09/22 03:11:35;;;;;;;0.70;0.60;;;;;;;8.70;100.00;-20919.06;6226449;22;20508;-71
2021/09/22 03:14:03;;;;;;;0.70;0.60;;;;;;;8.65;100.00;-20917.69;6226761;22;20776;-72
2021/09/22 03:16:32;;;;;;;0.70;0.60;;;;;;;8.64;100.00;-20917.41;6252511;22;20391;-71
2021/09/22 03:19:00;;;;;;;0.70;0.60;;;;;;;8.60;100.00;-20916.28;6252007;22;20726;-70
2021/09/22 03:21:30;;;;;;;0.70;0.60;;;;;;;8.54;100.00;-20914.63;6251380;22;20524;-72
2021/09/22 03:23:57;;;;;;;0.70;0.60;;;;;;;8.45;100.00;-20912.28;6251107;22;20518;-72
2021/09/22 03:26:25;;;;;;;0.70;0.60;;;;;;;8.39;100.00;-20910.63;6251425;22;20415;-72
2021/09/22 03:28:52;;;;;;;0.70;0.60;;;;;;;8.33;100.00;-20908.94;6251566;22;20768;-71
2021/09/22 03:31:22;;;;;;;0.87;0.80;;;;;;;8.33;100.00;-20908.81;6251089;22;20434;-72
2021/09/22 03:33:49;;;;;;;0.70;0.60;;;;;;;8.33;100.00;-20908.81;6251812;22;20776;-72
2021/09/22 03:36:16;;;;;;;0.73;0.60;;;;;;;8.31;100.00;-20908.25;6251603;22;20779;-71
2021/09/22 03:38:44;;;;;;;0.70;0.60;;;;;;;8.25;100.00;-20906.72;6250878;22;20483;-71
2021/09/22 03:41:12;;;;;;;0.70;0.60;;;;;;;8.20;100.00;-20905.34;6251167;22;20435;-71
2021/09/22 03:43:39;;;;;;;0.70;0.60;;;;;;;8.16;100.00;-20904.38;6251827;22;20773;-71
2021/09/22 03:46:07;;;;;;;0.70;0.60;;;;;;;8.18;100.00;-20904.78;6251668;22;20406;-71
2021/09/22 03:48:37;;;;;;;0.70;0.60;;;;;;;8.19;100.00;-20905.06;6251919;22;20410;-72
2021/09/22 03:51:03;;;;;;;0.70;0.60;;;;;;;8.15;100.00;-20903.94;6251451;22;20449;-71
2021/09/22 03:53:39;;;;;;;0.70;0.70;;;;;;;8.11;100.00;-20902.97;6251471;22;20422;-71
2021/09/22 03:56:07;;;;;;;0.70;0.60;;;;;;;8.14;100.00;-20903.69;6250989;22;20413;-72
2021/09/22 03:58:34;;;;;;;0.70;0.60;;;;;;;8.16;100.00;-20904.38;6250224;22;20406;-72
2021/09/22 04:01:01;;;;;;;0.70;0.67;;;;;;;8.14;100.00;-20903.69;6250634;22;20723;-71
2021/09/22 04:03:30;;;;;;;0.70;0.60;;;;;;;8.09;100.00;-20902.28;6251127;22;20875;-71
2021/09/22 04:05:59;;;;;;;0.70;0.60;;;;;;;8.11;100.00;-20902.97;6251377;22;20586;-72
2021/09/22 04:08:25;;;;;;;0.80;0.70;;;;;;;8.19;100.00;-20905.19;6250739;22;20426;-71
2021/09/22 04:10:52;;;;;;;0.73;0.70;;;;;;;8.26;100.00;-20906.88;6250970;22;20399;-71
2021/09/22 04:13:19;;;;;;;0.70;0.70;;;;;;;8.29;100.00;-20907.84;6225754;22;20414;-71
2021/09/22 04:15:51;;;;;;;0.70;0.60;;;;;;;8.42;100.00;-20911.31;6250795;22;20856;-72
2021/09/22 04:18:20;;;;;;;0.70;0.60;;;;;;;8.43;100.00;-20911.59;6225819;22;20406;-70
2021/09/22 04:20:48;;;;;;;0.70;0.67;;;;;;;8.39;100.00;-20910.47;6226054;22;20844;-72
2021/09/22 04:23:17;;;;;;;0.70;0.60;;;;;;;8.38;100.00;-20910.19;6251427;22;20423;-71
2021/09/22 04:25:45;;;;;;;0.70;0.60;;;;;;;8.36;100.00;-20909.63;6251146;22;20741;-72
2021/09/22 04:28:12;;;;;;;0.70;0.60;;;;;;;8.38;100.00;-20910.19;6250203;22;20755;-69
2021/09/22 04:30:57;;;;;;;0.70;0.60;;;;;;;8.43;100.00;-20911.72;6278291;22;20378;-70
2021/09/22 04:33:42;;;;;;;0.70;0.50;;;;;;;8.51;100.00;-20913.66;6278104;22;20867;-72
2021/09/22 04:36:28;;;;;;;0.70;0.60;;;;;;;8.44;100.00;-20911.88;6278035;22;20882;-73
2021/09/22 04:39:15;;;;;;;0.70;0.60;;;;;;;8.47;100.00;-20912.69;6255611;22;20732;-73
2021/09/22 04:42:01;;;;;;;0.70;0.60;;;;;;;8.48;100.00;-20912.84;6278644;22;20421;-71
2021/09/22 04:44:47;;;;;;;0.80;0.80;;;;;;;8.41;100.00;-20911.03;6254766;22;20422;-73
2021/09/22 04:47:33;;;;;;;0.70;0.60;;;;;;;8.45;100.00;-20912.13;6256233;22;20378;-73
2021/09/22 04:50:20;;;;;;;0.70;0.60;;;;;;;8.39;100.00;-20910.63;6277531;22;20454;-72
2021/09/22 04:53:05;;;;;;;0.80;0.70;;;;;;;8.44;100.00;-20911.88;6254947;22;20495;-72
2021/09/22 04:55:52;;;;;;;0.70;0.60;;;;;;;8.50;100.00;-20913.53;6277979;22;20459;-73
2021/09/22 04:58:37;;;;;;;0.70;0.60;;;;;;;8.46;100.00;-20912.41;6276752;22;20449;-73
2021/09/22 05:01:22;;;;;;;0.70;0.60;;;;;;;8.48;100.00;-20912.97;6255141;22;20498;-73
2021/09/22 05:04:09;;;;;;;0.70;0.60;;;;;;;8.47;100.00;-20912.69;6277921;22;20463;-72
2021/09/22 05:06:55;;;;;;;0.70;0.70;;;;;;;8.44;100.00;-20911.88;6254863;22;20669;-72
2021/09/22 05:09:40;;;;;;;0.70;0.60;;;;;;;8.47;100.00;-20912.69;6277345;22;20862;-71
2021/09/22 05:12:34;;;;;;;0.70;0.60;;;;;;;8.38;100.00;-20910.19;6277431;22;20402;-70
2021/09/22 05:15:20;;;;;;;0.70;0.60;;;;;;;8.29;100.00;-20907.84;6278050;22;20367;-70
2021/09/22 05:18:05;;;;;;;0.70;0.60;;;;;;;8.42;100.00;-20911.31;6277553;22;20373;-72
2021/09/22 05:20:52;;;;;;;0.70;0.60;;;;;;;8.43;100.00;-20911.59;6277993;22;20372;-72
2021/09/22 05:23:38;;;;;;;0.80;0.80;;;;;;;8.46;100.00;-20912.56;6277863;22;20489;-73
2021/09/22 05:26:23;;;;;;;0.70;0.60;;;;;;;8.41;100.00;-20911.03;6253658;22;20700;-72
2021/09/22 05:29:10;;;;;;;0.70;0.60;;;;;;;8.42;100.00;-20911.44;6277366;22;20370;-72
2021/09/22 05:31:55;;;;;;;0.70;0.60;;;;;;;8.53;100.00;-20914.34;6276297;22;20405;-72
2021/09/22 05:34:41;;;;;;;0.70;0.60;;;;;;;8.63;100.00;-20917.13;6277308;22;20370;-72
2021/09/22 05:37:30;;;;;;;0.70;0.60;;;;;;;8.68;100.00;-20918.50;6276973;22;20374;-72
2021/09/22 05:40:16;;;;;;;0.70;0.60;;;;;;;8.72;100.00;-20919.50;6255096;22;20452;-72
2021/09/22 05:43:01;;;;;;;0.70;0.60;;;;;;;8.79;100.00;-20921.44;6275725;22;20429;-72
2021/09/22 05:46:08;;;;;;;0.70;0.60;;;;;;;8.89;100.00;-20924.19;6167112;23;20404;-73
2021/09/22 05:48:53;;;;;;;0.80;0.80;;;;;;;8.98;100.00;-20926.56;6184597;23;20895;-73
2021/09/22 05:51:40;;;;;;;0.70;0.60;;;;;;;9.09;100.00;-20929.59;6209367;22;20437;-72
2021/09/22 05:54:26;;;;;;;0.70;0.60;;;;;;;9.16;100.00;-20931.53;6278080;22;20433;-72
2021/09/22 05:57:13;;;;;;;0.70;0.60;;;;;;;9.21;100.00;-20932.66;6224132;22;20402;-72
2021/09/22 05:59:59;;;;;;;0.70;0.60;;;;;;;9.23;100.00;-20933.22;6277549;22;20378;-72
2021/09/22 06:03:07;;;;;;;0.70;0.60;;;;;;;9.35;100.00;-20936.53;6276079;22;20446;-72
2021/09/22 06:06:13;;;;;;;0.70;0.60;;;;;;;9.48;100.00;-20940.13;6153550;23;20402;-73
2021/09/22 06:09:16;;;;;;;0.70;0.60;;;;;;;9.49;100.00;-20940.41;6152002;23;20434;-72
2021/09/22 06:12:01;;;;;;;0.70;0.60;;;;;;;9.47;100.00;-20939.84;6231130;22;20747;-72
2021/09/22 06:14:28;;;;;;;0.70;0.60;;;;;;;9.49;100.00;-20940.41;6248264;22;20851;-72
2021/09/22 06:16:56;;;;;;;0.70;0.60;;;;;;;9.57;100.00;-20942.63;6248393;22;20402;-73
2021/09/22 06:19:29;;;;;;;0.70;0.60;;;;;;;9.57;100.00;-20942.50;6249511;22;20785;-72
2021/09/22 06:21:56;;;;;;;2.03;0.97;;;;;;;9.65;100.00;-20944.84;6248393;22;20796;-71
2021/09/22 06:24:41;;;;;;;0.67;0.60;;;;;;;9.77;100.00;-20947.88;6248394;22;20403;-72
2021/09/22 06:27:13;;;;;;;0.70;0.60;;;;;;;9.91;100.00;-20951.91;6250030;22;20727;-72
2021/09/22 06:29:43;;;;;;;0.70;0.60;;;;;;;9.99;100.00;-20953.97;6225098;22;20930;-71
2021/09/22 06:32:10;;;;;;;0.70;0.60;;;;;;;10.07;100.00;-20956.19;6250682;22;20436;-72
2021/09/22 06:34:59;;;;;;;0.70;0.60;;;;;;;10.22;100.00;-20960.06;6193769;22;20405;-71
2021/09/22 06:37:38;;;;;;;0.70;0.60;;;;;;;10.30;100.00;-20962.28;6227223;22;20960;-72
2021/09/22 06:40:14;;;;;;;0.70;0.60;;;;;;;10.44;100.00;-20966.16;6251164;22;20504;-72
2021/09/22 06:42:43;;;;;;;0.70;0.60;;;;;;;10.54;100.00;-20968.94;6249753;22;20438;-72
2021/09/22 06:45:10;;;;;;;0.70;0.60;;;;;;;10.66;100.00;-20971.97;6249490;22;20415;-71
2021/09/22 06:47:37;;;;;;;0.70;0.60;;;;;;;10.72;100.00;-20973.63;6249347;22;20415;-73
2021/09/22 06:50:07;;;;;;;0.70;0.60;;;;;;;10.83;100.00;-20976.69;6276445;22;20418;-72
2021/09/22 06:52:35;;;;;;;0.70;0.60;;;;;;;11.00;100.00;-20981.38;6250924;22;20413;-72
2021/09/22 06:55:03;;;;;;;0.70;0.60;;;;;;;11.00;100.00;-20981.38;6277237;22;20469;-73
2021/09/22 06:57:30;;;;;;;0.70;0.60;;;;;;;11.05;100.00;-20982.75;6250957;22;20372;-70
2021/09/22 06:59:58;;;;;;;0.70;0.63;;;;;;;11.16;100.00;-20985.66;6225717;22;20395;-70
2021/09/22 07:02:25;;;;;;;0.70;0.60;;;;;;;11.19;100.00;-20986.34;6250519;22;20958;-73
2021/09/22 07:04:55;;;;;;;1.00;0.90;;;;;;;11.25;100.00;-20988.00;6277408;22;20364;-72
2021/09/22 07:07:23;;;;;;;1.00;0.80;;;;;;;11.39;100.00;-20991.88;6249165;22;20442;-72
2021/09/22 07:09:51;;;;;;;0.80;0.80;;;;;;;11.55;100.00;-20996.16;6251652;22;20388;-74
2021/09/22 07:12:18;;;;;;;1.07;0.97;;;;;;;11.54;100.00;-20996.03;6278988;22;20717;-72
2021/09/22 07:14:45;;;;;;;0.70;0.60;;;;;;;11.67;100.00;-20999.34;6248793;22;20387;-73
2021/09/22 07:17:12;;;;;;;2.53;1.47;;;;;;;11.78;100.00;-21002.38;6246548;22;20455;-72
2021/09/22 07:19:41;;;;;;;0.70;0.60;;;;;;;11.91;100.00;-21005.84;6246640;22;20782;-72
2021/09/22 07:22:08;;;;;;;0.70;0.60;;;;;;;12.06;100.00;-21010.13;6221362;22;20426;-72
2021/09/22 07:24:36;;;;;;;0.70;0.63;;;;;;;11.99;100.00;-21008.06;6246929;22;20906;-73
2021/09/22 07:27:03;;;;;;;0.70;0.60;;;;;;;12.12;100.00;-21011.50;6221346;22;20421;-72
2021/09/22 07:29:30;;;;;;;0.70;0.60;;;;;;;12.09;100.00;-21010.81;6273460;22;20374;-72
2021/09/22 07:31:57;;;;;;;0.70;0.70;;;;;;;12.22;100.00;-21014.25;6274330;22;20417;-73
2021/09/22 07:34:29;;;;;;;1.23;1.13;;;;;;;12.27;100.00;-21015.66;6275909;22;20917;-73
2021/09/22 07:37:11;;;;;;;0.83;0.83;;;;;;;12.40;100.00;-21019.22;6252977;22;20378;-71
2021/09/22 07:39:42;;;;;;;0.77;0.70;;;;;;;12.52;100.00;-21022.53;6275400;22;20379;-72
2021/09/22 07:42:13;;;;;;;1.43;1.33;;;;;;;12.69;100.00;-21026.97;6249171;22;20979;-71
2021/09/22 07:44:41;;;;;;;0.70;0.70;;;;;;;12.91;100.00;-21033.03;6276048;22;20376;-71
2021/09/22 07:47:08;;;;;;;0.70;0.63;;;;;;;13.02;100.00;-21036.06;6249231;22;20402;-72
2021/09/22 07:49:35;;;;;;;0.73;0.73;;;;;;;13.10;100.00;-21038.00;6249368;22;20419;-72
2021/09/22 07:52:02;;;;;;;0.70;0.67;;;;;;;13.21;100.00;-21041.03;6251341;22;20388;-72
2021/09/22 07:54:29;;;;;;;0.80;0.70;;;;;;;13.54;100.00;-21050.13;6277403;22;20398;-72
2021/09/22 07:56:58;;;;;;;0.77;0.73;;;;;;;13.66;100.00;-21053.31;6225296;22;20403;-71
2021/09/22 07:59:25;;;;;;;0.70;0.60;;;;;;;13.78;100.00;-21056.59;6277930;22;20834;-70
2021/09/22 08:01:57;;;;;;;0.70;0.70;;;;;;;13.92;100.00;-21060.19;6250905;22;20398;-71
2021/09/22 08:04:24;;;;;;;0.70;0.60;;;;;;;14.15;100.00;-21066.38;6251241;22;20405;-72
2021/09/22 08:06:52;;;;;;;0.70;0.70;;;;;;;14.35;100.00;-21071.88;6277444;22;20506;-70
2021/09/22 08:09:20;;;;;;;0.70;0.60;;;;;;;14.33;100.00;-21071.34;6278185;22;20820;-71
2021/09/22 08:11:47;;;;;;;1.20;1.10;;;;;;;14.83;100.00;-21084.84;6250103;22;20495;-72
2021/09/22 08:14:34;;;;;;;0.80;0.80;;;;;;;14.90;100.00;-21086.75;6250296;22;20404;-73
2021/09/22 08:17:04;;;;;;;0.70;0.60;;;;;;;15.49;100.00;-21102.44;6277698;22;20368;-73
2021/09/22 08:19:33;;;;;;;0.70;0.60;;;;;;;15.75;100.00;-21109.44;6225814;22;20405;-71
2021/09/22 08:22:00;;;;;;;0.80;0.73;;;;;;;16.15;100.00;-21120.31;6278056;22;20761;-72
2021/09/22 08:24:28;;;;;;;2.97;1.70;;;;;;;16.57;100.00;-21131.56;6225204;22;20809;-71
2021/09/22 08:26:55;;;;;;;0.80;0.80;;;;;;;17.12;100.00;-21146.38;6277600;22;20367;-72
2021/09/22 08:29:24;;;;;;;0.80;0.80;;;;;;;17.33;100.00;-21152.16;6277683;22;20441;-70
2021/09/22 08:31:52;;;;;;;1.10;0.80;;;;;;;17.04;100.00;-21144.19;6277860;22;20436;-68
2021/09/22 08:34:23;;;;;;;0.70;0.60;;;;;;;16.92;100.00;-21140.91;6278252;22;20414;-68
2021/09/22 08:36:50;;;;;;;1.40;1.30;;;;;;;17.33;100.00;-21152.00;6251461;22;20391;-72
2021/09/22 08:39:18;;;;;;;0.80;0.70;;;;;;;17.17;100.00;-21147.75;6251103;22;20429;-72
2021/09/22 08:41:46;;;;;;;0.80;0.80;;;;;;;17.09;100.00;-21145.56;6277720;22;20372;-72
2021/09/22 08:44:14;;;;;;;0.70;0.70;;;;;;;17.17;100.00;-21147.75;6250758;22;20882;-71
2021/09/22 08:46:44;;;;;;;0.90;0.90;;;;;;;17.38;100.00;-21153.53;6277563;22;20378;-71
2021/09/22 08:49:14;;;;;;;1.07;1.00;;;;;;;17.72;100.00;-21162.56;6277733;22;20691;-70
2021/09/22 08:51:46;;;;;;;0.80;0.80;;;;;;;18.02;100.00;-21170.53;6250464;22;20406;-70
2021/09/22 08:54:16;;;;;;;0.80;0.70;;;;;;;18.09;100.00;-21172.56;6277495;22;20402;-70
2021/09/22 08:56:44;;;;;;;0.80;0.80;;;;;;;18.31;100.00;-21178.47;6277856;22;20453;-69
2021/09/22 08:59:16;;;;;;;0.80;0.70;;;;;;;17.80;100.00;-21164.63;6276479;22;20376;-70
2021/09/22 09:02:05;;;;;;;0.80;0.70;;;;;;;18.26;100.00;-21177.09;6276570;22;20425;-69
2021/09/22 09:04:36;;;;;;;2.93;1.53;;;;;;;18.86;100.00;-21192.97;6250105;22;20388;-71
2021/09/22 09:07:05;;;;;;;0.80;0.70;;;;;;;19.22;100.00;-21202.84;6250373;22;20378;-71
2021/09/22 09:09:39;;;;;;;0.80;0.60;;;;;;;19.03;100.00;-21197.63;6277815;22;20770;-70
2021/09/22 09:12:15;;;;;;;0.70;0.60;;;;;;;19.13;100.00;-21200.38;6277857;22;20373;-71
2021/09/22 09:14:50;;;;;;;0.80;0.60;;;;;;;19.72;100.00;-21216.25;6277099;22;20345;-71
2021/09/22 09:17:34;;;;;;;0.83;0.73;;;;;;;20.08;100.00;-21225.81;6251144;22;20379;-71
2021/09/22 09:20:10;;;;;;;1.27;1.17;;;;;;;20.20;100.00;-21229.06;6225485;22;20398;-71
2021/09/22 09:22:39;;;;;;;0.80;0.70;;;;;;;19.93;100.00;-21221.69;6248213;22;20446;-71
2021/09/22 09:25:07;;;;;;;0.70;0.60;;;;;;;19.45;100.00;-21208.84;6277046;22;20417;-71
2021/09/22 09:27:36;;;;;;;1.23;1.13;;;;;;;20.48;100.00;-21236.47;6277608;22;20463;-71
2021/09/22 09:30:15;;;;;;;1.53;1.10;;;;;;;20.43;100.00;-21235.22;6276929;22;20367;-73
2021/09/22 09:32:42;;;;;;;1.10;1.00;;;;;;;20.41;100.00;-21234.53;6249547;22;20871;-71
2021/09/22 09:35:12;;;;;;;0.70;0.60;;;;;;;20.53;100.00;-21237.69;6276623;22;20406;-71
2021/09/22 09:37:41;;;;;;;0.80;0.80;;;;;;;20.70;100.00;-21242.47;6277446;22;20758;-71
2021/09/22 09:40:22;;;;;;;0.70;0.60;;;;;;;20.99;100.00;-21250.09;6249213;22;20399;-71
2021/09/22 09:42:53;;;;;;;0.70;0.60;;;;;;;21.65;100.00;-21267.69;6277370;22;20414;-71
2021/09/22 09:45:22;;;;;;;0.80;0.63;;;;;;;21.86;100.00;-21273.44;6277070;22;20450;-71
2021/09/22 09:47:59;;;;;;;0.70;0.60;;;;;;;22.12;100.00;-21280.38;6277663;22;20425;-71
2021/09/22 09:50:27;;;;;;;1.53;1.47;;;;;;;22.77;100.00;-21297.66;6277899;22;20374;-71
2021/09/22 09:52:56;;;;;;;0.80;0.70;;;;;;;23.13;100.00;-21307.34;6225103;22;20419;-70
2021/09/22 09:55:26;;;;;;;0.70;0.57;;;;;;;22.83;100.00;-21299.16;6278766;22;20741;-72
2021/09/22 09:57:56;;;;;;;1.10;0.90;;;;;;;23.49;100.00;-21316.72;6276402;22;20374;-71
2021/09/22 10:00:25;;;;;;;0.90;0.70;;;;;;;22.92;100.00;-21301.47;6275583;22;20812;-70
2021/09/22 10:02:52;;;;;;;1.40;1.00;;;;;;;23.30;100.00;-21311.81;6277504;22;20460;-71
2021/09/22 10:05:19;;;;;;;0.93;0.83;;;;;;;23.52;100.00;-21317.66;6277444;22;20379;-68
2021/09/22 10:07:49;;;;;;;0.80;0.63;;;;;;;23.10;100.00;-21306.50;6250418;22;20819;-71
2021/09/22 10:10:16;;;;;;;1.60;0.80;;;;;;;23.48;100.00;-21316.44;6250196;22;20456;-71
2021/09/22 10:12:45;;;;;;;0.73;0.57;;;;;;;23.91;100.00;-21327.88;6252226;22;20410;-71
2021/09/22 10:15:13;;;;;;;0.70;0.60;;;;;;;23.21;100.00;-21309.38;6251437;22;20442;-70
2021/09/22 10:17:43;;;;;;;1.50;0.67;;;;;;;24.13;100.00;-21333.84;6278584;22;20429;-71
2021/09/22 10:20:16;;;;;;;1.60;1.03;;;;;;;24.89;100.00;-21353.94;6252613;22;20403;-71
2021/09/22 10:22:44;;;;;;;1.63;1.00;;;;;;;23.84;100.00;-21326.09;6227588;22;20851;-72
2021/09/22 10:25:15;;;;;;;0.70;0.50;;;;;;;24.56;100.00;-21345.25;6279852;22;20403;-69
2021/09/22 10:27:45;;;;;;;1.30;1.20;;;;;;;24.40;100.00;-21340.91;6252551;22;20778;-68
2021/09/22 10:30:14;;;;;;;1.30;0.80;;;;;;;24.62;100.00;-21346.75;6251997;22;20391;-69
2021/09/22 10:32:45;;;;;;;0.70;0.50;;;;;;;23.98;100.00;-21329.75;6277593;22;20367;-72
2021/09/22 10:35:36;;;;;;;0.90;0.70;;;;;;;24.61;100.00;-21346.47;6276996;22;20371;-71
2021/09/22 10:38:49;;;;;;;1.13;0.67;;;;;;;24.03;100.00;-21331.25;6250767;22;20415;-71
2021/09/22 10:41:27;;;;;;;0.90;0.70;;;;;;;24.94;100.00;-21355.41;6252685;22;20375;-68
2021/09/22 10:43:54;;;;;;;0.70;0.60;;;;;;;26.01;100.00;-21383.88;6278414;22;20485;-72
2021/09/22 10:46:22;;;;;;;0.70;0.60;;;;;;;24.84;100.00;-21352.72;6279144;22;20372;-70
2021/09/22 10:49:14;;;;;;;2.10;1.80;;;;;;;25.51;100.00;-21370.59;6251768;22;20462;-71
2021/09/22 10:51:44;;;;;;;1.20;1.10;;;;;;;25.72;100.00;-21376.03;6242813;22;20406;-70
2021/09/22 10:54:14;;;;;;;1.17;0.70;;;;;;;26.02;100.00;-21384.03;6278520;22;20407;-69
2021/09/22 10:56:58;;;;;;;1.43;1.30;;;;;;;24.04;100.00;-21331.53;6250950;22;20422;-69
2021/09/22 10:59:35;;;;;;;1.87;0.97;;;;;;;24.99;100.00;-21356.78;6276808;22;20371;-68
2021/09/22 11:02:03;;;;;;;0.80;0.60;;;;;;;25.09;100.00;-21359.34;6277142;22;20371;-70
2021/09/22 11:04:56;;;;;;;1.13;0.90;;;;;;;25.56;100.00;-21371.69;6249479;22;20427;-72
2021/09/22 11:07:23;;;;;;;1.20;0.60;;;;;;;24.32;100.00;-21338.88;6215245;22;20407;-71
2021/09/22 11:09:51;;;;;;;0.70;0.50;;;;;;;24.41;100.00;-21341.16;6276660;22;20375;-71
2021/09/22 11:12:22;;;;;;;1.23;1.13;;;;;;;24.37;100.00;-21340.09;6247584;22;20497;-72
2021/09/22 11:14:52;;;;;;;0.70;0.50;;;;;;;24.13;100.00;-21333.69;6224722;22;20421;-71
2021/09/22 11:17:22;;;;;;;1.23;1.10;;;;;;;24.62;100.00;-21346.75;6275413;22;20703;-71
2021/09/22 11:19:53;;;;;;;0.90;0.70;;;;;;;24.54;100.00;-21344.84;6275020;22;20379;-70
2021/09/22 11:22:27;;;;;;;1.00;0.90;;;;;;;24.49;100.00;-21343.47;6225061;22;20398;-72
2021/09/22 11:24:57;;;;;;;1.10;1.00;;;;;;;24.16;100.00;-21334.53;6250109;22;20433;-71
2021/09/22 11:27:27;;;;;;;1.00;0.90;;;;;;;24.03;100.00;-21331.13;6276048;22;20375;-71
2021/09/22 11:30:01;;;;;;;0.80;0.80;;;;;;;23.99;100.00;-21330.03;6275084;22;20744;-71
2021/09/22 11:32:34;;;;;;;0.80;0.60;;;;;;;23.98;100.00;-21329.75;6249695;22;20466;-71
2021/09/22 11:35:04;;;;;;;1.20;0.80;;;;;;;23.77;100.00;-21324.31;6277545;22;20367;-71
2021/09/22 11:37:34;;;;;;;0.80;0.60;;;;;;;23.67;100.00;-21321.47;6250098;22;20460;-71
2021/09/22 11:40:11;;;;;;;1.00;0.90;;;;;;;24.23;100.00;-21336.56;6276716;22;20426;-71
2021/09/22 11:42:54;;;;;;;3.53;1.13;;;;;;;24.58;100.00;-21345.94;6278803;22;20377;-71
2021/09/22 11:45:22;;;;;;;0.80;0.60;;;;;;;24.18;100.00;-21335.06;6252303;22;20402;-71
2021/09/22 11:47:49;;;;;;;0.80;0.60;;;;;;;24.19;100.00;-21335.31;6280169;22;20469;-72
2021/09/22 11:50:36;;;;;;;0.80;0.60;;;;;;;24.49;100.00;-21343.47;6280608;22;20371;-70